Time;durP1;ratioP1;P1;durP2;ratioP2;P2;SDS_P1;SDS_P2;PMS_P1;PMS_P2;Temp;Humidity;BMP_temperature;BMP_pressure;BME280_temperature;BME280_humidity;BME280_pressure;Samples;Min_cycle;Max_cycle;Signal;HPM_P1;HPM_P2
2021/10/04 00:02:12;;;;;;;19.90;12.70;;;;;;;11.89;80.82;100779.67;1716682;82;27432;-79
2021/10/04 00:04:39;;;;;;;18.17;11.48;;;;;;;11.86;80.91;100774.67;1731336;82;26317;-80
2021/10/04 00:07:06;;;;;;;18.98;12.33;;;;;;;11.87;81.04;100773.13;1693750;82;25935;-79
2021/10/04 00:09:33;;;;;;;17.95;12.30;;;;;;;11.88;81.07;100776.14;1678786;82;25837;-79
2021/10/04 00:12:01;;;;;;;18.80;12.23;;;;;;;11.86;81.14;100775.51;1694374;82;26096;-79
2021/10/04 00:14:28;;;;;;;17.62;11.88;;;;;;;11.87;81.24;100772.31;1727170;80;28214;-79
2021/10/04 00:16:56;;;;;;;17.55;12.40;;;;;;;11.85;81.26;100775.67;1727096;80;25951;-79
2021/10/04 00:19:24;;;;;;;18.73;12.28;;;;;;;11.84;81.41;100775.38;1721184;80;25666;-79
2021/10/04 00:21:51;;;;;;;21.10;12.85;;;;;;;11.84;81.47;100778.89;1754609;80;25942;-79
2021/10/04 00:24:19;;;;;;;19.15;12.33;;;;;;;11.86;81.63;100776.02;1752916;80;26416;-78
2021/10/04 00:26:46;;;;;;;17.65;11.88;;;;;;;11.85;81.68;100775.17;1728742;80;27454;-79
2021/10/04 00:29:13;;;;;;;21.60;13.30;;;;;;;11.85;81.74;100780.54;1714476;80;25950;-79
2021/10/04 00:31:40;;;;;;;17.62;12.20;;;;;;;11.83;81.76;100773.19;1755905;80;25885;-79
2021/10/04 00:34:07;;;;;;;20.12;12.33;;;;;;;11.85;81.81;100776.52;1759980;80;25862;-79
2021/10/04 00:36:34;;;;;;;19.92;12.75;;;;;;;11.85;81.81;100772.99;1738680;80;25861;-79
2021/10/04 00:39:02;;;;;;;19.40;11.57;;;;;;;11.85;81.82;100775.67;1708378;80;27561;-79
2021/10/04 00:41:29;;;;;;;16.50;11.93;;;;;;;11.86;81.94;100780.03;1754940;80;25841;-80
2021/10/04 00:43:56;;;;;;;19.67;11.80;;;;;;;11.86;82.00;100777.35;1749748;80;26196;-79
2021/10/04 00:46:25;;;;;;;19.82;12.58;;;;;;;11.84;81.94;100776.20;1741244;80;25808;-79
2021/10/04 00:48:53;;;;;;;20.60;12.18;;;;;;;11.87;82.01;100776.34;1702125;80;25912;-79
2021/10/04 00:51:21;;;;;;;19.50;12.33;;;;;;;11.86;82.14;100780.03;1752896;80;27435;-79
2021/10/04 00:53:50;;;;;;;16.15;11.60;;;;;;;11.82;82.06;100774.23;1750972;80;26623;-79
2021/10/04 00:56:19;;;;;;;15.85;12.00;;;;;;;11.83;82.19;100773.19;1755281;80;25824;-79
2021/10/04 00:58:46;;;;;;;23.80;11.88;;;;;;;11.82;82.31;100768.86;1767658;80;26593;-79
2021/10/04 01:01:14;;;;;;;19.17;11.65;;;;;;;11.82;82.37;100768.02;1747971;80;25741;-79
2021/10/04 01:03:41;;;;;;;21.02;13.15;;;;;;;11.81;82.49;100769.87;1736254;80;28096;-79
2021/10/04 01:06:08;;;;;;;19.02;11.97;;;;;;;11.81;82.59;100763.16;1725932;80;25781;-79
2021/10/04 01:08:35;;;;;;;17.92;11.40;;;;;;;11.81;82.60;100761.81;1762694;80;25871;-80
2021/10/04 01:11:02;;;;;;;18.62;11.15;;;;;;;11.81;82.58;100765.00;1753980;80;26451;-80
2021/10/04 01:13:29;;;;;;;16.12;12.78;;;;;;;11.81;82.76;100767.69;1751149;80;25777;-78
2021/10/04 01:15:57;;;;;;;18.15;12.45;;;;;;;11.79;82.89;100763.02;1712572;82;27461;-79
2021/10/04 01:18:24;;;;;;;15.72;11.78;;;;;;;11.81;82.86;100763.16;1651453;82;25933;-78
2021/10/04 01:20:51;;;;;;;18.00;13.30;;;;;;;11.83;82.84;100760.27;1696574;82;25881;-79
2021/10/04 01:23:18;;;;;;;18.70;11.50;;;;;;;11.85;82.90;100756.88;1724343;80;25817;-79
2021/10/04 01:25:45;;;;;;;15.13;11.83;;;;;;;11.86;82.97;100756.72;1676303;82;25730;-79
2021/10/04 01:28:13;;;;;;;19.82;11.63;;;;;;;11.87;83.06;100760.23;1676598;82;28427;-79
2021/10/04 01:30:40;;;;;;;16.15;11.40;;;;;;;11.89;82.96;100760.88;1723962;81;25710;-79
2021/10/04 01:33:07;;;;;;;17.17;11.53;;;;;;;11.89;83.04;100759.00;1695178;82;25905;-79
2021/10/04 01:35:34;;;;;;;18.90;12.47;;;;;;;11.92;83.11;100760.48;1669995;82;26515;-80
2021/10/04 01:38:02;;;;;;;17.48;12.70;;;;;;;11.90;83.10;100757.16;1687913;82;25869;-79
2021/10/04 01:40:29;;;;;;;19.30;13.53;;;;;;;11.91;83.31;100756.95;1722502;82;28249;-79
2021/10/04 01:42:56;;;;;;;19.75;12.65;;;;;;;11.92;83.12;100758.63;1724891;82;25783;-79
2021/10/04 01:45:26;;;;;;;19.15;12.03;;;;;;;11.95;83.14;100760.95;1670559;82;25975;-79
2021/10/04 01:47:59;;;;;;;16.85;11.80;;;;;;;11.98;83.25;100759.70;1688962;82;26569;-79
2021/10/04 01:50:24;;;;;;;16.90;11.83;;;;;;;12.00;83.18;100755.81;1724670;82;25874;-79
2021/10/04 01:52:51;;;;;;;23.87;13.15;;;;;;;12.01;83.20;100752.63;1721819;81;27433;-80
2021/10/04 01:55:18;;;;;;;19.95;12.58;;;;;;;11.99;83.21;100754.17;1674105;82;25837;-79
2021/10/04 01:57:45;;;;;;;15.65;11.55;;;;;;;11.99;83.29;100754.67;1673758;82;25828;-79
2021/10/04 02:00:16;;;;;;;21.05;12.00;;;;;;;12.02;83.34;100751.58;1699822;82;25849;-79
2021/10/04 02:02:47;;;;;;;21.17;12.65;;;;;;;12.03;83.35;100750.07;1724560;82;26534;-79
2021/10/04 02:05:15;;;;;;;19.15;11.55;;;;;;;12.06;83.38;100751.55;1705234;82;27214;-80
2021/10/04 02:07:42;;;;;;;19.07;11.95;;;;;;;12.07;83.36;100755.37;1695129;82;25838;-80
2021/10/04 02:10:13;;;;;;;15.80;11.00;;;;;;;12.08;83.41;100752.98;1699761;82;26453;-79
2021/10/04 02:12:42;;;;;;;14.83;11.40;;;;;;;12.10;83.37;100751.48;1721306;82;25910;-79
2021/10/04 02:15:10;;;;;;;17.40;11.83;;;;;;;12.09;83.38;100754.67;1707149;80;25912;-79
2021/10/04 02:17:38;;;;;;;18.05;13.20;;;;;;;12.09;83.52;100754.67;1737952;80;28186;-79
2021/10/04 02:20:09;;;;;;;19.50;12.58;;;;;;;12.10;83.46;100756.31;1734142;80;25710;-79
2021/10/04 02:22:37;;;;;;;19.85;11.90;;;;;;;12.11;83.46;100755.80;1749608;80;25851;-79
2021/10/04 02:25:06;;;;;;;20.90;12.93;;;;;;;12.12;83.49;100758.83;1754052;80;25833;-79
2021/10/04 02:27:33;;;;;;;16.87;12.63;;;;;;;12.12;83.56;100752.95;1766365;80;25898;-79
2021/10/04 02:30:00;;;;;;;20.48;12.95;;;;;;;12.13;83.49;100754.59;1719024;80;27469;-78
2021/10/04 02:32:27;;;;;;;16.80;12.33;;;;;;;12.14;83.56;100758.12;1751323;80;25800;-79
2021/10/04 02:34:54;;;;;;;18.95;11.93;;;;;;;12.16;83.57;100764.97;1712182;80;25873;-79
2021/10/04 02:37:21;;;;;;;18.50;12.82;;;;;;;12.20;83.60;100760.86;1742016;79;26427;-79
2021/10/04 02:39:48;;;;;;;19.25;12.68;;;;;;;12.21;83.48;100760.36;1738395;80;26563;-79
2021/10/04 02:42:15;;;;;;;18.15;12.73;;;;;;;12.21;83.50;100759.02;1734600;80;27445;-78
2021/10/04 02:44:42;;;;;;;16.75;11.57;;;;;;;12.23;83.57;100766.37;1753001;80;25868;-80
2021/10/04 02:47:09;;;;;;;18.77;12.50;;;;;;;12.25;83.56;100760.29;1743353;80;25856;-78
2021/10/04 02:49:36;;;;;;;17.23;12.28;;;;;;;12.26;83.51;100760.59;1744515;80;26239;-79
2021/10/04 02:52:04;;;;;;;15.65;12.50;;;;;;;12.27;83.48;100764.41;1748141;80;26477;-79
2021/10/04 02:54:32;;;;;;;17.95;13.08;;;;;;;12.26;83.46;100756.56;1731992;80;27337;-79
2021/10/04 02:56:59;;;;;;;20.88;13.72;;;;;;;12.28;83.50;100762.57;1736570;81;25865;-78
2021/10/04 02:59:26;;;;;;;17.77;12.45;;;;;;;12.29;83.58;100758.37;1747493;80;25581;-80
2021/10/04 03:01:54;;;;;;;14.98;12.03;;;;;;;12.28;83.41;100757.20;1753655;80;25775;-79
2021/10/04 03:04:24;;;;;;;19.32;12.78;;;;;;;12.30;83.49;100759.17;1765878;80;25945;-79
2021/10/04 03:06:51;;;;;;;18.30;12.47;;;;;;;12.31;83.46;100759.51;1727995;80;27493;-80
2021/10/04 03:09:19;;;;;;;16.50;11.53;;;;;;;12.30;83.42;100764.05;1733197;80;25791;-79
2021/10/04 03:11:46;;;;;;;14.98;11.53;;;;;;;12.32;83.40;100761.16;1755587;80;25788;-79
2021/10/04 03:14:13;;;;;;;14.98;11.93;;;;;;;12.33;83.33;100764.17;1699784;80;25787;-79
2021/10/04 03:16:40;;;;;;;18.25;13.20;;;;;;;12.33;83.41;100762.83;1735371;80;25861;-79
2021/10/04 03:19:07;;;;;;;16.35;11.08;;;;;;;12.32;83.36;100762.50;1753344;80;27576;-79
2021/10/04 03:21:34;;;;;;;17.57;12.33;;;;;;;12.31;83.41;100763.03;1773449;80;25764;-80
2021/10/04 03:24:01;;;;;;;14.95;11.78;;;;;;;12.30;83.44;100761.86;1788599;79;26568;-80
2021/10/04 03:26:28;;;;;;;19.17;12.05;;;;;;;12.30;83.39;100763.20;1774020;79;25889;-80
2021/10/04 03:28:55;;;;;;;17.60;11.38;;;;;;;12.30;83.38;100763.20;1756686;80;25827;-79
2021/10/04 03:31:23;;;;;;;17.67;12.28;;;;;;;12.29;83.37;100766.93;1781171;80;27566;-80
2021/10/04 03:33:50;;;;;;;19.62;12.65;;;;;;;12.29;83.35;100762.91;1771741;80;26478;-80
2021/10/04 03:36:17;;;;;;;17.67;11.57;;;;;;;12.30;83.35;100764.55;1717532;80;25856;-79
2021/10/04 03:38:45;;;;;;;16.12;11.18;;;;;;;12.29;83.32;100767.77;1746864;80;25818;-79
2021/10/04 03:41:12;;;;;;;18.70;13.15;;;;;;;12.27;83.25;100756.90;1773850;79;25932;-79
2021/10/04 03:43:39;;;;;;;17.73;11.78;;;;;;;12.26;83.24;100760.59;1747281;80;27406;-79
2021/10/04 03:46:06;;;;;;;18.95;12.40;;;;;;;12.25;83.20;100767.81;1748755;80;25870;-79
2021/10/04 03:48:33;;;;;;;15.58;11.08;;;;;;;12.23;83.17;100769.05;1749652;80;25311;-79
2021/10/04 03:51:00;;;;;;;15.35;11.20;;;;;;;12.22;83.19;100768.72;1765517;79;25941;-79
2021/10/04 03:53:27;;;;;;;16.93;10.95;;;;;;;12.18;83.16;100768.28;1702246;80;25629;-82
2021/10/04 03:55:54;;;;;;;19.67;11.78;;;;;;;12.17;83.14;100765.27;1761961;80;27423;-82
2021/10/04 03:58:21;;;;;;;19.85;11.38;;;;;;;12.16;83.10;100770.84;1748656;81;26734;-82
2021/10/04 04:00:48;;;;;;;18.00;11.85;;;;;;;12.15;83.12;100770.50;1774461;80;25815;-81
2021/10/04 04:03:15;;;;;;;19.20;12.90;;;;;;;12.13;83.05;100766.68;1763686;80;25818;-81
2021/10/04 04:05:42;;;;;;;20.00;12.53;;;;;;;12.11;83.04;100765.20;1753432;80;26058;-81
2021/10/04 04:08:09;;;;;;;15.90;12.18;;;;;;;12.09;82.99;100765.91;1762809;80;27463;-81
2021/10/04 04:10:36;;;;;;;15.75;11.60;;;;;;;12.06;83.03;100767.12;1741327;80;26091;-81
2021/10/04 04:13:03;;;;;;;16.02;11.68;;;;;;;12.04;83.05;100775.88;1765433;80;26232;-81
2021/10/04 04:15:30;;;;;;;22.05;12.65;;;;;;;12.03;83.08;100768.87;1732935;80;25872;-81
2021/10/04 04:17:58;;;;;;;18.02;11.83;;;;;;;12.02;83.06;100769.88;1759334;80;25793;-81
2021/10/04 04:20:25;;;;;;;19.25;12.37;;;;;;;12.00;83.06;100770.58;1761767;80;27502;-82
2021/10/04 04:22:52;;;;;;;19.45;12.18;;;;;;;12.00;83.03;100769.73;1763870;80;25350;-81
2021/10/04 04:25:19;;;;;;;17.25;11.85;;;;;;;11.98;83.06;100763.23;1755944;80;26261;-81
2021/10/04 04:27:46;;;;;;;14.47;10.95;;;;;;;11.97;83.01;100765.61;1752381;80;25798;-81
2021/10/04 04:30:14;;;;;;;16.02;12.53;;;;;;;11.94;82.93;100756.59;1758107;80;25748;-81
2021/10/04 04:32:43;;;;;;;18.95;12.00;;;;;;;11.93;83.05;100760.27;1783478;79;27481;-81
2021/10/04 04:35:13;;;;;;;19.25;12.80;;;;;;;11.89;83.08;100754.17;1767620;80;25631;-81
2021/10/04 04:37:41;;;;;;;20.20;12.33;;;;;;;11.86;83.09;100753.20;1745775;80;26316;-81
2021/10/04 04:40:14;;;;;;;24.60;12.23;;;;;;;11.84;83.17;100757.92;1772578;80;25932;-80
2021/10/04 04:42:42;;;;;;;17.48;12.58;;;;;;;11.82;83.31;100759.97;1743306;80;25772;-81
2021/10/04 04:45:13;;;;;;;22.17;14.35;;;;;;;11.77;83.30;100762.38;1742915;80;27516;-81
2021/10/04 04:47:40;;;;;;;19.90;14.45;;;;;;;11.77;83.37;100761.05;1740628;80;25338;-81
2021/10/04 04:50:09;;;;;;;21.42;14.60;;;;;;;11.76;83.36;100764.77;1741624;80;26451;-81
2021/10/04 04:52:36;;;;;;;19.62;14.58;;;;;;;11.75;83.38;100765.27;1781595;80;25833;-82
2021/10/04 04:55:05;;;;;;;22.02;15.45;;;;;;;11.73;83.33;100760.60;1742537;80;25771;-82
2021/10/04 04:57:32;;;;;;;26.15;15.08;;;;;;;11.72;83.41;100774.22;1741245;80;27574;-82
2021/10/04 04:59:59;;;;;;;22.62;13.22;;;;;;;11.69;83.50;100760.67;1767743;80;25757;-81
2021/10/04 05:02:26;;;;;;;18.42;12.47;;;;;;;11.69;83.59;100767.38;1779419;80;26511;-81
2021/10/04 05:04:54;;;;;;;15.65;12.53;;;;;;;11.69;83.61;100764.69;1741204;80;26617;-81
2021/10/04 05:07:21;;;;;;;18.37;12.40;;;;;;;11.67;83.66;100766.73;1775933;80;26463;-81
2021/10/04 05:09:48;;;;;;;17.57;12.98;;;;;;;11.67;83.70;100772.61;1767555;80;27450;-81
2021/10/04 05:12:15;;;;;;;22.05;12.10;;;;;;;11.63;83.75;100766.23;1746154;80;25807;-81
2021/10/04 05:14:42;;;;;;;17.98;13.38;;;;;;;11.64;83.89;100769.75;1782805;80;26617;-82
2021/10/04 05:17:09;;;;;;;16.27;12.43;;;;;;;11.64;83.96;100771.09;1746520;80;25786;-81
2021/10/04 05:19:37;;;;;;;19.05;13.70;;;;;;;11.64;84.03;100780.48;1762949;80;25818;-81
2021/10/04 05:22:04;;;;;;;18.75;13.22;;;;;;;11.64;84.11;100784.00;1782747;80;27406;-82
2021/10/04 05:24:31;;;;;;;16.82;13.90;;;;;;;11.65;84.06;100782.97;1746750;80;25974;-81
2021/10/04 05:26:58;;;;;;;19.10;12.68;;;;;;;11.68;84.16;100782.30;1718304;80;25868;-81
2021/10/04 05:29:25;;;;;;;18.55;13.05;;;;;;;11.67;84.17;100788.20;1717053;80;25843;-82
2021/10/04 05:31:54;;;;;;;22.17;12.88;;;;;;;11.68;84.28;100785.82;1768516;80;25802;-81
2021/10/04 05:34:21;;;;;;;17.52;12.10;;;;;;;11.69;84.30;100790.18;1766018;80;27418;-81
2021/10/04 05:36:48;;;;;;;19.17;13.15;;;;;;;11.70;84.31;100791.02;1743026;80;25890;-81
2021/10/04 05:39:16;;;;;;;23.98;13.68;;;;;;;11.69;84.34;100793.37;1758417;80;25353;-81
2021/10/04 05:41:43;;;;;;;21.37;12.10;;;;;;;11.68;84.34;100792.53;1766403;80;25925;-82
2021/10/04 05:44:10;;;;;;;15.95;12.25;;;;;;;11.68;84.37;100793.03;1771715;80;25758;-82
2021/10/04 05:46:37;;;;;;;16.20;12.33;;;;;;;11.67;84.39;100788.20;1738261;80;27451;-81
2021/10/04 05:49:04;;;;;;;20.77;13.60;;;;;;;11.69;84.52;100800.08;1729575;80;26751;-81
2021/10/04 05:51:31;;;;;;;16.25;13.10;;;;;;;11.67;84.53;100798.94;1765361;80;25822;-82
2021/10/04 05:53:58;;;;;;;20.92;13.40;;;;;;;11.67;84.66;100792.23;1761834;80;25805;-81
2021/10/04 05:56:25;;;;;;;20.37;13.48;;;;;;;11.67;84.81;100794.91;1742003;80;25770;-82
2021/10/04 05:58:52;;;;;;;22.13;15.58;;;;;;;11.70;84.90;100793.70;1691501;80;27501;-82
2021/10/04 06:01:20;;;;;;;21.35;12.68;;;;;;;11.72;84.98;100800.52;1745184;80;53905;-82
2021/10/04 06:03:47;;;;;;;17.45;12.25;;;;;;;11.76;85.07;100791.06;1767288;80;25896;-81
2021/10/04 06:06:14;;;;;;;18.42;12.03;;;;;;;11.79;85.07;100792.04;1737169;80;25877;-81
2021/10/04 06:08:41;;;;;;;19.50;13.85;;;;;;;11.83;85.12;100793.32;1751369;80;25819;-81
2021/10/04 06:11:08;;;;;;;18.75;12.13;;;;;;;11.88;85.23;100794.09;1740465;80;27414;-81
2021/10/04 06:13:35;;;;;;;19.15;13.05;;;;;;;11.92;85.18;100792.69;1764716;80;25822;-81
2021/10/04 06:16:02;;;;;;;19.23;12.95;;;;;;;11.96;85.26;100796.15;1736409;81;25903;-82
2021/10/04 06:18:30;;;;;;;21.25;13.90;;;;;;;12.02;85.27;100793.20;1731761;80;25813;-81
2021/10/04 06:20:57;;;;;;;16.77;12.65;;;;;;;12.07;85.25;100792.96;1720383;80;25899;-82
2021/10/04 06:23:24;;;;;;;19.23;12.98;;;;;;;12.12;85.25;100791.89;1771191;79;27515;-82
2021/10/04 06:25:51;;;;;;;20.70;12.68;;;;;;;12.17;85.20;100794.80;1698329;82;25912;-82
2021/10/04 06:28:18;;;;;;;17.73;11.88;;;;;;;12.23;85.30;100799.41;1717817;80;25768;-81
2021/10/04 06:30:45;;;;;;;17.67;12.35;;;;;;;12.29;85.23;100802.69;1659632;82;25469;-81
2021/10/04 06:33:12;;;;;;;16.67;13.35;;;;;;;12.35;85.15;100807.28;1716547;80;25856;-81
2021/10/04 06:35:39;;;;;;;19.48;13.15;;;;;;;12.43;85.26;100809.49;1714860;80;26962;-82
2021/10/04 06:38:06;;;;;;;20.72;11.97;;;;;;;12.50;85.20;100811.23;1694919;80;25719;-82
2021/10/04 06:40:33;;;;;;;21.42;12.40;;;;;;;12.57;85.21;100806.75;1705889;80;25349;-81
2021/10/04 06:43:01;;;;;;;19.80;11.90;;;;;;;12.66;85.07;100817.66;1748146;80;25804;-82
2021/10/04 06:45:28;;;;;;;19.90;12.15;;;;;;;12.74;85.15;100820.72;1724147;80;25747;-82
2021/10/04 06:47:55;;;;;;;16.80;13.22;;;;;;;12.84;85.12;100826.58;1684057;82;27565;-82
2021/10/04 06:50:22;;;;;;;16.95;12.30;;;;;;;12.91;85.00;100827.47;1697824;80;25994;-82
2021/10/04 06:52:49;;;;;;;18.42;12.40;;;;;;;12.98;84.69;100833.73;1750787;80;25798;-81
2021/10/04 06:55:16;;;;;;;17.52;11.43;;;;;;;13.04;84.54;100832.94;1722012;82;26601;-82
2021/10/04 06:57:43;;;;;;;17.50;13.10;;;;;;;13.13;84.53;100833.11;1684260;82;25889;-82
2021/10/04 07:00:19;;;;;;;18.70;12.82;;;;;;;13.22;84.39;100835.97;1701333;80;27387;-82
2021/10/04 07:02:42;;;;;;;21.80;12.98;;;;;;;13.29;84.33;100831.47;1740530;80;25817;-82
2021/10/04 07:05:10;;;;;;;18.75;12.47;;;;;;;13.38;84.23;100838.35;1721908;80;26658;-82
2021/10/04 07:07:37;;;;;;;18.00;11.85;;;;;;;13.46;84.02;100839.52;1723002;80;26498;-81
2021/10/04 07:10:05;;;;;;;16.57;11.83;;;;;;;13.55;83.93;100838.84;1719853;80;25351;-82
2021/10/04 07:12:32;;;;;;;16.80;12.25;;;;;;;13.63;83.59;100842.19;1723035;80;27521;-82
2021/10/04 07:14:59;;;;;;;18.67;12.05;;;;;;;13.71;83.42;100840.66;1702439;82;26149;-81
2021/10/04 07:17:26;;;;;;;18.87;10.60;;;;;;;13.80;83.33;100846.20;1693268;81;26181;-82
2021/10/04 07:19:53;;;;;;;18.05;11.15;;;;;;;13.89;83.18;100842.81;1671546;81;25653;-82
2021/10/04 07:22:20;;;;;;;16.65;10.30;;;;;;;14.00;83.13;100846.27;1743042;81;25804;-82
2021/10/04 07:24:47;;;;;;;20.82;11.65;;;;;;;14.11;83.21;100853.77;1730603;81;27566;-81
2021/10/04 07:27:14;;;;;;;16.20;10.78;;;;;;;14.22;82.82;100850.98;1696253;81;25866;-81
2021/10/04 07:29:41;;;;;;;17.57;10.68;;;;;;;14.30;82.47;100855.70;1707433;82;25874;-82
2021/10/04 07:32:09;;;;;;;13.20;9.93;;;;;;;14.35;82.07;100856.44;1684498;82;26436;-81
2021/10/04 07:34:36;;;;;;;15.98;9.90;;;;;;;14.41;81.79;100852.91;1745216;81;25849;-82
2021/10/04 07:37:03;;;;;;;14.18;9.85;;;;;;;14.49;81.75;100855.41;1694310;81;27562;-82
2021/10/04 07:39:31;;;;;;;19.42;10.38;;;;;;;14.55;81.43;100850.53;1730345;82;25617;-82
2021/10/04 07:41:58;;;;;;;18.62;10.45;;;;;;;14.63;81.42;100856.55;1745125;81;25279;-81
2021/10/04 07:44:26;;;;;;;14.70;9.65;;;;;;;14.74;81.55;100862.35;1716247;81;25909;-82
2021/10/04 07:46:57;;;;;;;15.98;9.65;;;;;;;14.84;81.55;100860.09;1711350;82;25856;-82
2021/10/04 07:49:25;;;;;;;19.17;10.43;;;;;;;14.94;81.15;100865.89;1754548;81;27509;-82
2021/10/04 07:51:52;;;;;;;15.38;9.85;;;;;;;15.04;80.64;100862.24;1736923;81;26476;-82
2021/10/04 07:54:19;;;;;;;14.68;9.48;;;;;;;15.10;80.25;100855.48;1720421;81;26241;-82
2021/10/04 07:56:46;;;;;;;12.90;9.45;;;;;;;15.20;79.93;100856.42;1715227;81;25848;-82
2021/10/04 07:59:13;;;;;;;13.20;8.80;;;;;;;15.28;79.89;100864.29;1691419;81;25913;-82
2021/10/04 08:01:40;;;;;;;20.52;9.60;;;;;;;15.37;79.53;100859.81;1738567;81;27470;-82
2021/10/04 08:04:07;;;;;;;13.18;9.35;;;;;;;15.46;79.33;100864.50;1720915;81;25861;-82
2021/10/04 08:06:34;;;;;;;13.45;9.30;;;;;;;15.55;78.91;100853.75;1692770;81;25742;-82
2021/10/04 08:09:01;;;;;;;12.93;9.35;;;;;;;15.63;78.99;100860.27;1707338;81;26617;-82
2021/10/04 08:11:28;;;;;;;15.60;10.68;;;;;;;15.70;78.59;100862.94;1738605;81;25277;-82
2021/10/04 08:13:55;;;;;;;13.30;8.80;;;;;;;15.80;78.56;100864.69;1716637;81;28236;-82
2021/10/04 08:16:23;;;;;;;16.12;9.55;;;;;;;15.87;78.44;100859.55;1718666;81;25321;-83
2021/10/04 08:18:52;;;;;;;14.53;8.85;;;;;;;15.97;78.16;100856.40;1724511;81;25332;-82
2021/10/04 08:21:21;;;;;;;17.15;9.13;;;;;;;16.07;78.02;100862.16;1730858;81;25830;-82
2021/10/04 08:23:50;;;;;;;15.20;8.58;;;;;;;16.14;76.85;100854.30;1681273;82;26429;-83
2021/10/04 08:26:18;;;;;;;13.40;8.45;;;;;;;16.23;77.25;100857.59;1728899;82;27559;-82
2021/10/04 08:28:45;;;;;;;14.47;8.48;;;;;;;16.31;77.45;100853.30;1724451;81;25806;-82
2021/10/04 08:31:12;;;;;;;15.13;8.70;;;;;;;16.38;77.05;100855.41;1729844;82;25756;-82
2021/10/04 08:33:39;;;;;;;12.75;8.08;;;;;;;16.47;76.74;100859.52;1754444;81;26425;-82
2021/10/04 08:36:06;;;;;;;11.63;8.03;;;;;;;16.55;76.12;100852.52;1729107;82;25309;-82
2021/10/04 08:38:33;;;;;;;16.75;8.73;;;;;;;16.62;75.35;100850.59;1724220;82;27377;-82
2021/10/04 08:41:00;;;;;;;14.95;9.88;;;;;;;16.70;75.67;100855.73;1729835;81;25831;-82
2021/10/04 08:43:27;;;;;;;13.48;8.80;;;;;;;16.79;75.39;100854.92;1754379;81;25846;-82
2021/10/04 08:45:57;;;;;;;17.75;9.50;;;;;;;16.86;75.16;100853.84;1729041;82;25823;-83
2021/10/04 08:48:26;;;;;;;11.15;7.62;;;;;;;16.95;75.16;100851.69;1725473;80;25773;-83
2021/10/04 08:50:55;;;;;;;19.50;8.38;;;;;;;17.03;74.98;100854.61;1730160;82;27591;-82
2021/10/04 08:53:24;;;;;;;11.38;8.15;;;;;;;17.11;74.65;100850.30;1742236;81;25872;-83
2021/10/04 08:55:51;;;;;;;10.88;8.60;;;;;;;17.20;74.78;100851.64;1724726;82;25884;-83
2021/10/04 08:58:18;;;;;;;18.77;8.70;;;;;;;17.27;74.48;100858.66;1704639;82;25811;-82
2021/10/04 09:00:45;;;;;;;12.55;7.55;;;;;;;17.36;74.75;100855.97;1729810;81;25815;-82
2021/10/04 09:03:13;;;;;;;12.90;8.10;;;;;;;17.45;74.66;100855.95;1729642;81;28232;-83
2021/10/04 09:05:44;;;;;;;11.55;7.75;;;;;;;17.55;73.79;100850.05;1720551;82;26173;-82
2021/10/04 09:08:16;;;;;;;12.93;8.65;;;;;;;17.66;74.49;100854.72;1728745;81;25953;-83
2021/10/04 09:10:47;;;;;;;13.10;7.78;;;;;;;17.75;73.95;100855.23;1730332;81;25936;-83
2021/10/04 09:13:15;;;;;;;10.82;7.50;;;;;;;17.84;73.79;100853.85;1729787;82;25843;-82
2021/10/04 09:15:48;;;;;;;10.58;7.40;;;;;;;17.92;73.75;100854.92;1714613;81;27623;-82
2021/10/04 09:18:28;;;;;;;13.10;7.80;;;;;;;18.02;73.34;100854.67;1712072;82;25840;-81
2021/10/04 09:21:09;;;;;;;10.63;8.13;;;;;;;18.11;73.11;100853.27;1745459;82;25860;-81
2021/10/04 09:23:45;;;;;;;;;;;;;;;18.21;72.44;100850.02;1747495;80;25836;-81
2021/10/04 09:26:27;;;;;;;12.05;8.78;;;;;;;18.28;72.25;100850.21;1720329;82;25837;-82
2021/10/04 09:29:06;;;;;;;14.40;7.33;;;;;;;18.33;72.33;100846.81;1717200;82;27537;-82
2021/10/04 09:31:41;;;;;;;15.60;7.53;;;;;;;18.40;72.08;100857.04;1741141;82;25774;-81
2021/10/04 09:34:16;;;;;;;13.70;8.03;;;;;;;18.44;71.75;100852.84;1712689;82;26477;-82
2021/10/04 09:36:56;;;;;;;11.43;7.83;;;;;;;18.50;71.84;100853.26;1740477;82;26466;-82
2021/10/04 09:39:36;;;;;;;10.40;7.78;;;;;;;18.56;71.71;100851.00;1710577;82;25809;-82
2021/10/04 09:42:08;;;;;;;15.43;8.05;;;;;;;18.62;71.16;100856.84;1739255;82;27472;-81
2021/10/04 09:45:02;;;;;;;10.90;7.55;;;;;;;18.67;70.79;100850.17;1744907;82;25968;-82
2021/10/04 09:47:38;;;;;;;11.30;7.42;;;;;;;18.75;71.10;100847.66;1744891;82;25628;-82
2021/10/04 09:50:10;;;;;;;13.43;7.85;;;;;;;18.83;70.95;100847.31;1710588;82;25817;-80
2021/10/04 09:52:45;;;;;;;10.40;7.35;;;;;;;18.89;70.19;100847.20;1721196;82;26458;-82
2021/10/04 09:55:31;;;;;;;10.10;7.08;;;;;;;18.96;70.46;100847.92;1744866;81;28731;-82
2021/10/04 09:58:21;;;;;;;12.23;7.28;;;;;;;19.03;70.28;100841.02;1720116;82;25325;-82
2021/10/04 10:01:04;;;;;;;13.88;7.45;;;;;;;19.10;70.43;100834.92;1713579;82;25765;-82
2021/10/04 10:03:40;;;;;;;12.07;6.75;;;;;;;19.18;70.05;100837.30;1738114;80;26459;-84
2021/10/04 10:06:07;;;;;;;14.85;7.55;;;;;;;19.24;70.00;100834.98;1733640;82;26092;-83
2021/10/04 10:08:34;;;;;;;11.15;7.65;;;;;;;19.27;69.29;100837.20;1721045;82;27451;-83
2021/10/04 10:11:05;;;;;;;10.13;7.03;;;;;;;19.30;69.23;100839.98;1740908;82;25802;-82
2021/10/04 10:13:34;;;;;;;12.53;7.17;;;;;;;19.31;69.13;100834.31;1744728;80;25845;-84
2021/10/04 10:16:15;;;;;;;7.87;6.80;;;;;;;19.32;68.56;100833.26;1744663;80;26564;-83
2021/10/04 10:19:06;;;;;;;11.95;7.10;;;;;;;19.36;68.45;100830.39;1739238;80;25848;-83
2021/10/04 10:21:36;;;;;;;12.98;7.45;;;;;;;19.40;68.91;100830.20;1745449;80;28280;-83
2021/10/04 10:24:10;;;;;;;10.00;6.95;;;;;;;19.45;68.74;100830.84;1756059;80;25811;-82
2021/10/04 10:26:48;;;;;;;11.25;7.40;;;;;;;19.51;68.45;100836.16;1703756;80;25825;-83
2021/10/04 10:29:20;;;;;;;11.80;7.05;;;;;;;19.57;68.44;100835.19;1774935;80;25862;-84
2021/10/04 10:31:58;;;;;;;11.03;7.47;;;;;;;19.64;68.89;100833.70;1776938;80;25772;-83
2021/10/04 10:34:33;;;;;;;11.80;7.37;;;;;;;19.70;68.42;100833.56;1744426;80;27455;-84
2021/10/04 10:37:25;;;;;;;15.80;7.30;;;;;;;19.77;67.96;100829.35;1739816;80;25393;-83
2021/10/04 10:40:12;;;;;;;8.63;7.00;;;;;;;19.84;67.51;100828.69;1737398;80;25802;-83
2021/10/04 10:42:43;;;;;;;13.60;8.60;;;;;;;19.90;66.94;100823.64;1714589;80;26430;-83
2021/10/04 10:45:12;;;;;;;12.50;8.70;;;;;;;19.99;66.75;100830.34;1733095;81;25443;-83
2021/10/04 10:47:45;;;;;;;11.18;7.62;;;;;;;20.05;66.72;100823.10;1757669;81;27515;-84
2021/10/04 10:50:29;;;;;;;9.00;6.72;;;;;;;20.10;66.36;100821.32;1755865;81;25816;-83
2021/10/04 10:53:01;;;;;;;13.35;7.53;;;;;;;20.17;66.48;100827.41;1702503;80;26459;-82
2021/10/04 10:55:36;;;;;;;9.15;7.78;;;;;;;20.22;66.72;100826.19;1694335;81;25548;-83
2021/10/04 10:58:13;;;;;;;12.50;8.03;;;;;;;20.28;66.56;100818.94;1732998;81;26428;-84
2021/10/04 11:00:51;;;;;;;9.35;7.42;;;;;;;20.31;66.37;100818.45;1727269;80;27529;-84
2021/10/04 11:03:25;;;;;;;9.85;7.40;;;;;;;20.35;66.00;100823.70;1734739;81;25783;-84
2021/10/04 11:06:03;;;;;;;14.20;9.88;;;;;;;20.36;66.34;100819.92;1779239;80;25955;-83
2021/10/04 11:08:47;;;;;;;17.25;8.30;;;;;;;20.42;66.79;100818.94;1722516;80;25867;-84
2021/10/04 11:11:25;;;;;;;13.22;8.20;;;;;;;20.49;67.03;100822.30;1748098;80;26088;-83
2021/10/04 11:14:08;;;;;;;13.68;8.20;;;;;;;20.52;65.80;100821.29;1724606;81;28101;-83
2021/10/04 11:16:58;;;;;;;12.45;8.58;;;;;;;20.60;66.15;100822.77;1769350;80;25942;-83
2021/10/04 11:19:30;;;;;;;11.28;8.45;;;;;;;20.66;66.24;100825.85;1717406;80;25865;-84
2021/10/04 11:21:57;;;;;;;13.68;8.13;;;;;;;20.72;66.63;100831.14;1715101;81;26421;-83